sensor_id;sensor_type;location;lat;lon;timestamp;temperature;humidity
61255;DHT22;47128;47.530;8.584;2023-06-24T00:02:09;16.40;99.90
61255;DHT22;47128;47.530;8.584;2023-06-24T00:04:35;16.40;99.90
61255;DHT22;47128;47.530;8.584;2023-06-24T00:07:01;16.30;99.90
61255;DHT22;47128;47.530;8.584;2023-06-24T00:09:28;16.40;99.90
61255;DHT22;47128;47.530;8.584;2023-06-24T00:11:54;16.40;99.90
61255;DHT22;47128;47.530;8.584;2023-06-24T00:14:22;16.40;99.90
61255;DHT22;47128;47.530;8.584;2023-06-24T00:16:51;16.40;99.90
61255;DHT22;47128;47.530;8.584;2023-06-24T00:19:21;16.50;99.90
61255;DHT22;47128;47.530;8.584;2023-06-24T00:21:47;16.50;99.90
61255;DHT22;47128;47.530;8.584;2023-06-24T00:24:13;16.40;99.90
61255;DHT22;47128;47.530;8.584;2023-06-24T00:26:38;16.50;99.90
61255;DHT22;47128;47.530;8.584;2023-06-24T00:29:03;16.40;99.90
61255;DHT22;47128;47.530;8.584;2023-06-24T00:31:29;16.40;99.90
61255;DHT22;47128;47.530;8.584;2023-06-24T00:33:56;16.40;99.90
61255;DHT22;47128;47.530;8.584;2023-06-24T00:36:21;16.50;99.90
61255;DHT22;47128;47.530;8.584;2023-06-24T00:38:47;16.50;99.90
61255;DHT22;47128;47.530;8.584;2023-06-24T00:41:14;16.60;99.90
61255;DHT22;47128;47.530;8.584;2023-06-24T00:43:41;16.50;99.90
61255;DHT22;47128;47.530;8.584;2023-06-24T00:46:06;16.50;99.90
61255;DHT22;47128;47.530;8.584;2023-06-24T00:48:32;16.50;99.90
61255;DHT22;47128;47.530;8.584;2023-06-24T00:50:57;16.50;99.90
61255;DHT22;47128;47.530;8.584;2023-06-24T00:53:23;16.50;99.90
61255;DHT22;47128;47.530;8.584;2023-06-24T00:55:50;16.40;99.90
61255;DHT22;47128;47.530;8.584;2023-06-24T00:58:16;16.30;99.90
61255;DHT22;47128;47.530;8.584;2023-06-24T01:00:44;16.30;99.90
61255;DHT22;47128;47.530;8.584;2023-06-24T01:03:11;16.20;99.90
61255;DHT22;47128;47.530;8.584;2023-06-24T01:05:45;16.20;99.90
61255;DHT22;47128;47.530;8.584;2023-06-24T01:08:11;16.20;99.90
61255;DHT22;47128;47.530;8.584;2023-06-24T01:10:41;16.20;99.90
61255;DHT22;47128;47.530;8.584;2023-06-24T01:13:06;16.20;99.90
61255;DHT22;47128;47.530;8.584;2023-06-24T01:15:32;16.30;99.90
61255;DHT22;47128;47.530;8.584;2023-06-24T01:18:00;16.20;99.90
61255;DHT22;47128;47.530;8.584;2023-06-24T01:23:10;16.10;99.90
61255;DHT22;47128;47.530;8.584;2023-06-24T01:25:56;16.10;99.90
61255;DHT22;47128;47.530;8.584;2023-06-24T01:28:34;16.10;99.90
61255;DHT22;47128;47.530;8.584;2023-06-24T01:31:22;16.10;99.90
61255;DHT22;47128;47.530;8.584;2023-06-24T01:33:50;16.10;99.90
61255;DHT22;47128;47.530;8.584;2023-06-24T01:36:19;16.10;99.90
61255;DHT22;47128;47.530;8.584;2023-06-24T01:38:51;16.00;99.90
61255;DHT22;47128;47.530;8.584;2023-06-24T01:41:19;16.00;99.90
61255;DHT22;47128;47.530;8.584;2023-06-24T01:43:46;15.90;99.90
61255;DHT22;47128;47.530;8.584;2023-06-24T01:46:12;15.80;99.90
61255;DHT22;47128;47.530;8.584;2023-06-24T01:48:39;15.80;99.90
61255;DHT22;47128;47.530;8.584;2023-06-24T01:51:10;15.90;99.90
61255;DHT22;47128;47.530;8.584;2023-06-24T01:53:41;15.80;99.90
61255;DHT22;47128;47.530;8.584;2023-06-24T01:56:08;15.70;99.90
61255;DHT22;47128;47.530;8.584;2023-06-24T01:58:36;15.70;99.90
61255;DHT22;47128;47.530;8.584;2023-06-24T02:01:02;15.60;99.90
61255;DHT22;47128;47.530;8.584;2023-06-24T02:03:28;15.70;99.90
61255;DHT22;47128;47.530;8.584;2023-06-24T02:05:54;15.80;99.90
61255;DHT22;47128;47.530;8.584;2023-06-24T02:08:21;15.80;99.90
61255;DHT22;47128;47.530;8.584;2023-06-24T02:10:47;15.70;99.90
61255;DHT22;47128;47.530;8.584;2023-06-24T02:13:14;15.60;99.90
61255;DHT22;47128;47.530;8.584;2023-06-24T02:15:40;15.50;99.90
61255;DHT22;47128;47.530;8.584;2023-06-24T02:18:06;15.60;99.90
61255;DHT22;47128;47.530;8.584;2023-06-24T02:20:34;15.60;99.90
61255;DHT22;47128;47.530;8.584;2023-06-24T02:25:27;15.40;99.90
61255;DHT22;47128;47.530;8.584;2023-06-24T02:27:53;15.40;99.90
61255;DHT22;47128;47.530;8.584;2023-06-24T02:30:23;15.40;99.90
61255;DHT22;47128;47.530;8.584;2023-06-24T02:32:48;15.40;99.90
61255;DHT22;47128;47.530;8.584;2023-06-24T02:35:14;15.50;99.90
61255;DHT22;47128;47.530;8.584;2023-06-24T02:37:39;15.60;99.90
61255;DHT22;47128;47.530;8.584;2023-06-24T02:40:05;15.60;99.90
61255;DHT22;47128;47.530;8.584;2023-06-24T02:42:32;15.50;99.90
61255;DHT22;47128;47.530;8.584;2023-06-24T02:44:58;15.40;99.90
61255;DHT22;47128;47.530;8.584;2023-06-24T02:47:23;15.30;99.90
61255;DHT22;47128;47.530;8.584;2023-06-24T02:49:49;15.30;99.90
61255;DHT22;47128;47.530;8.584;2023-06-24T02:52:16;15.30;99.90
61255;DHT22;47128;47.530;8.584;2023-06-24T02:54:42;15.40;99.90
61255;DHT22;47128;47.530;8.584;2023-06-24T02:57:08;15.30;99.90
61255;DHT22;47128;47.530;8.584;2023-06-24T02:59:33;15.30;99.90
61255;DHT22;47128;47.530;8.584;2023-06-24T03:01:59;15.30;99.90
61255;DHT22;47128;47.530;8.584;2023-06-24T03:04:25;15.30;99.90
61255;DHT22;47128;47.530;8.584;2023-06-24T03:06:51;15.30;99.90
61255;DHT22;47128;47.530;8.584;2023-06-24T03:09:17;15.30;99.90
61255;DHT22;47128;47.530;8.584;2023-06-24T03:11:43;15.30;99.90
61255;DHT22;47128;47.530;8.584;2023-06-24T03:14:12;15.20;99.90
61255;DHT22;47128;47.530;8.584;2023-06-24T03:16:38;15.10;99.90
61255;DHT22;47128;47.530;8.584;2023-06-24T03:19:04;15.10;99.90
61255;DHT22;47128;47.530;8.584;2023-06-24T03:21:29;15.10;99.90
61255;DHT22;47128;47.530;8.584;2023-06-24T03:23:55;15.10;99.90
61255;DHT22;47128;47.530;8.584;2023-06-24T03:26:20;15.10;99.90
61255;DHT22;47128;47.530;8.584;2023-06-24T03:28:46;15.10;99.90
61255;DHT22;47128;47.530;8.584;2023-06-24T03:31:12;15.10;99.90
61255;DHT22;47128;47.530;8.584;2023-06-24T03:33:38;15.10;99.90
61255;DHT22;47128;47.530;8.584;2023-06-24T03:36:03;15.00;99.90
61255;DHT22;47128;47.530;8.584;2023-06-24T03:38:29;15.10;99.90
61255;DHT22;47128;47.530;8.584;2023-06-24T03:40:54;15.10;99.90
61255;DHT22;47128;47.530;8.584;2023-06-24T03:43:19;15.10;99.90
61255;DHT22;47128;47.530;8.584;2023-06-24T03:45:45;15.00;99.90
61255;DHT22;47128;47.530;8.584;2023-06-24T03:48:10;15.10;99.90
61255;DHT22;47128;47.530;8.584;2023-06-24T03:50:36;15.10;99.90
61255;DHT22;47128;47.530;8.584;2023-06-24T03:53:02;15.10;99.90
61255;DHT22;47128;47.530;8.584;2023-06-24T03:55:28;15.10;99.90
61255;DHT22;47128;47.530;8.584;2023-06-24T03:57:53;15.20;99.90
61255;DHT22;47128;47.530;8.584;2023-06-24T04:00:19;15.10;99.90
61255;DHT22;47128;47.530;8.584;2023-06-24T04:02:46;15.00;99.90
61255;DHT22;47128;47.530;8.584;2023-06-24T04:05:11;14.90;99.90
61255;DHT22;47128;47.530;8.584;2023-06-24T04:07:37;14.90;99.90
61255;DHT22;47128;47.530;8.584;2023-06-24T04:10:04;14.90;99.90
61255;DHT22;47128;47.530;8.584;2023-06-24T04:12:36;15.00;99.90
61255;DHT22;47128;47.530;8.584;2023-06-24T04:15:02;15.10;99.90
61255;DHT22;47128;47.530;8.584;2023-06-24T04:17:28;15.10;99.90
61255;DHT22;47128;47.530;8.584;2023-06-24T04:19:54;15.20;99.90
61255;DHT22;47128;47.530;8.584;2023-06-24T04:22:19;15.10;99.90
61255;DHT22;47128;47.530;8.584;2023-06-24T04:24:45;15.10;99.90
61255;DHT22;47128;47.530;8.584;2023-06-24T04:27:10;15.10;99.90
61255;DHT22;47128;47.530;8.584;2023-06-24T04:29:35;15.10;99.90
61255;DHT22;47128;47.530;8.584;2023-06-24T04:32:01;15.00;99.90
61255;DHT22;47128;47.530;8.584;2023-06-24T04:34:26;15.00;99.90
61255;DHT22;47128;47.530;8.584;2023-06-24T04:36:52;15.00;99.90
61255;DHT22;47128;47.530;8.584;2023-06-24T04:39:17;15.10;99.90
61255;DHT22;47128;47.530;8.584;2023-06-24T04:41:43;15.20;99.90
61255;DHT22;47128;47.530;8.584;2023-06-24T04:44:08;15.30;99.90
61255;DHT22;47128;47.530;8.584;2023-06-24T04:46:34;15.40;99.90
61255;DHT22;47128;47.530;8.584;2023-06-24T04:49:00;15.50;99.90
61255;DHT22;47128;47.530;8.584;2023-06-24T04:51:25;15.60;99.90
61255;DHT22;47128;47.530;8.584;2023-06-24T04:53:51;15.70;99.90
61255;DHT22;47128;47.530;8.584;2023-06-24T04:56:16;15.70;99.90
61255;DHT22;47128;47.530;8.584;2023-06-24T04:58:42;15.80;99.90
61255;DHT22;47128;47.530;8.584;2023-06-24T05:01:07;15.80;99.90
61255;DHT22;47128;47.530;8.584;2023-06-24T05:03:33;15.90;99.90
61255;DHT22;47128;47.530;8.584;2023-06-24T05:05:59;15.90;99.90
61255;DHT22;47128;47.530;8.584;2023-06-24T05:08:24;16.00;99.90
61255;DHT22;47128;47.530;8.584;2023-06-24T05:13:15;16.20;99.90
61255;DHT22;47128;47.530;8.584;2023-06-24T05:15:41;16.40;99.90
61255;DHT22;47128;47.530;8.584;2023-06-24T05:18:06;16.60;99.90
61255;DHT22;47128;47.530;8.584;2023-06-24T05:20:32;16.90;99.90
61255;DHT22;47128;47.530;8.584;2023-06-24T05:22:57;17.00;99.90
61255;DHT22;47128;47.530;8.584;2023-06-24T05:25:23;17.20;99.90
61255;DHT22;47128;47.530;8.584;2023-06-24T05:27:49;17.40;99.90
61255;DHT22;47128;47.530;8.584;2023-06-24T05:30:14;17.60;99.90
61255;DHT22;47128;47.530;8.584;2023-06-24T05:32:40;17.90;99.90
61255;DHT22;47128;47.530;8.584;2023-06-24T05:35:05;18.00;99.90
61255;DHT22;47128;47.530;8.584;2023-06-24T05:37:31;18.10;99.90
61255;DHT22;47128;47.530;8.584;2023-06-24T05:39:56;18.20;99.90
61255;DHT22;47128;47.530;8.584;2023-06-24T05:42:22;18.40;99.90
61255;DHT22;47128;47.530;8.584;2023-06-24T05:44:48;18.60;99.90
61255;DHT22;47128;47.530;8.584;2023-06-24T05:47:14;18.50;99.70
61255;DHT22;47128;47.530;8.584;2023-06-24T05:49:39;18.70;99.70
61255;DHT22;47128;47.530;8.584;2023-06-24T05:52:05;18.90;99.90
61255;DHT22;47128;47.530;8.584;2023-06-24T05:54:30;19.30;98.70
61255;DHT22;47128;47.530;8.584;2023-06-24T05:56:56;19.80;98.20
61255;DHT22;47128;47.530;8.584;2023-06-24T05:59:21;20.70;96.60
61255;DHT22;47128;47.530;8.584;2023-06-24T06:01:47;21.70;94.70
61255;DHT22;47128;47.530;8.584;2023-06-24T06:04:12;23.40;92.60
61255;DHT22;47128;47.530;8.584;2023-06-24T06:06:38;24.40;90.80
61255;DHT22;47128;47.530;8.584;2023-06-24T06:09:05;25.90;87.40
61255;DHT22;47128;47.530;8.584;2023-06-24T06:11:31;25.90;87.90
61255;DHT22;47128;47.530;8.584;2023-06-24T06:13:56;26.10;86.30
61255;DHT22;47128;47.530;8.584;2023-06-24T06:16:22;25.20;85.20
61255;DHT22;47128;47.530;8.584;2023-06-24T06:18:47;24.00;86.80
61255;DHT22;47128;47.530;8.584;2023-06-24T06:21:13;23.50;88.30
61255;DHT22;47128;47.530;8.584;2023-06-24T06:23:38;23.80;88.00
61255;DHT22;47128;47.530;8.584;2023-06-24T06:26:03;24.20;86.40
61255;DHT22;47128;47.530;8.584;2023-06-24T06:28:29;25.40;84.00
61255;DHT22;47128;47.530;8.584;2023-06-24T06:30:54;26.30;82.50
61255;DHT22;47128;47.530;8.584;2023-06-24T06:33:22;26.90;80.20
61255;DHT22;47128;47.530;8.584;2023-06-24T06:35:47;28.00;78.40
61255;DHT22;47128;47.530;8.584;2023-06-24T06:38:13;28.30;77.90
61255;DHT22;47128;47.530;8.584;2023-06-24T06:40:38;28.60;77.10
61255;DHT22;47128;47.530;8.584;2023-06-24T06:43:04;28.60;77.20
61255;DHT22;47128;47.530;8.584;2023-06-24T06:45:30;28.60;77.30
61255;DHT22;47128;47.530;8.584;2023-06-24T06:47:55;28.90;75.90
61255;DHT22;47128;47.530;8.584;2023-06-24T06:50:21;28.40;76.10
61255;DHT22;47128;47.530;8.584;2023-06-24T06:52:46;28.80;75.60
61255;DHT22;47128;47.530;8.584;2023-06-24T06:55:12;28.70;75.40
61255;DHT22;47128;47.530;8.584;2023-06-24T06:57:37;29.00;75.00
61255;DHT22;47128;47.530;8.584;2023-06-24T07:00:03;28.70;74.40
61255;DHT22;47128;47.530;8.584;2023-06-24T07:02:29;28.40;75.40
61255;DHT22;47128;47.530;8.584;2023-06-24T07:04:54;27.80;75.50
61255;DHT22;47128;47.530;8.584;2023-06-24T07:07:20;27.10;75.60
61255;DHT22;47128;47.530;8.584;2023-06-24T07:09:45;26.30;76.70
61255;DHT22;47128;47.530;8.584;2023-06-24T07:12:11;25.80;76.60
61255;DHT22;47128;47.530;8.584;2023-06-24T07:17:04;25.30;92.00
61255;DHT22;47128;47.530;8.584;2023-06-24T07:19:30;24.90;77.80
61255;DHT22;47128;47.530;8.584;2023-06-24T07:21:55;24.50;78.00
61255;DHT22;47128;47.530;8.584;2023-06-24T07:24:21;24.40;78.90
61255;DHT22;47128;47.530;8.584;2023-06-24T07:26:46;24.00;80.00
61255;DHT22;47128;47.530;8.584;2023-06-24T07:29:12;24.00;80.10
61255;DHT22;47128;47.530;8.584;2023-06-24T07:31:37;24.10;80.10
61255;DHT22;47128;47.530;8.584;2023-06-24T07:34:03;24.40;80.00
61255;DHT22;47128;47.530;8.584;2023-06-24T07:36:28;24.00;80.40
61255;DHT22;47128;47.530;8.584;2023-06-24T07:38:54;24.20;80.80
61255;DHT22;47128;47.530;8.584;2023-06-24T07:41:19;23.70;80.00
61255;DHT22;47128;47.530;8.584;2023-06-24T07:46:10;22.90;80.10
61255;DHT22;47128;47.530;8.584;2023-06-24T07:48:36;23.10;80.40
61255;DHT22;47128;47.530;8.584;2023-06-24T07:51:01;23.30;80.50
61255;DHT22;47128;47.530;8.584;2023-06-24T07:53:27;23.40;80.80
61255;DHT22;47128;47.530;8.584;2023-06-24T07:55:52;23.60;81.00
61255;DHT22;47128;47.530;8.584;2023-06-24T07:58:18;23.70;80.50
61255;DHT22;47128;47.530;8.584;2023-06-24T08:00:44;23.90;80.40
61255;DHT22;47128;47.530;8.584;2023-06-24T08:03:10;24.10;80.00
61255;DHT22;47128;47.530;8.584;2023-06-24T08:05:35;24.40;80.00
61255;DHT22;47128;47.530;8.584;2023-06-24T08:08:01;24.80;79.20
61255;DHT22;47128;47.530;8.584;2023-06-24T08:10:26;25.00;79.10
61255;DHT22;47128;47.530;8.584;2023-06-24T08:12:52;24.80;78.80
61255;DHT22;47128;47.530;8.584;2023-06-24T08:15:17;25.00;78.80
61255;DHT22;47128;47.530;8.584;2023-06-24T08:17:43;25.10;78.80
61255;DHT22;47128;47.530;8.584;2023-06-24T08:20:09;24.60;79.20
61255;DHT22;47128;47.530;8.584;2023-06-24T08:22:36;24.30;79.80
61255;DHT22;47128;47.530;8.584;2023-06-24T08:25:01;24.40;80.70
61255;DHT22;47128;47.530;8.584;2023-06-24T08:27:27;24.60;80.30
61255;DHT22;47128;47.530;8.584;2023-06-24T08:29:53;24.90;80.20
61255;DHT22;47128;47.530;8.584;2023-06-24T08:32:18;25.20;79.50
61255;DHT22;47128;47.530;8.584;2023-06-24T08:34:44;25.40;79.20
61255;DHT22;47128;47.530;8.584;2023-06-24T08:37:10;25.30;79.10
61255;DHT22;47128;47.530;8.584;2023-06-24T08:39:36;25.40;80.00
61255;DHT22;47128;47.530;8.584;2023-06-24T08:42:02;25.50;79.40
61255;DHT22;47128;47.530;8.584;2023-06-24T08:44:28;24.90;78.30
61255;DHT22;47128;47.530;8.584;2023-06-24T08:46:54;24.90;79.50
61255;DHT22;47128;47.530;8.584;2023-06-24T08:51:54;25.20;79.70
61255;DHT22;47128;47.530;8.584;2023-06-24T08:54:22;25.50;79.70
61255;DHT22;47128;47.530;8.584;2023-06-24T08:56:48;25.80;79.10
61255;DHT22;47128;47.530;8.584;2023-06-24T08:59:14;26.00;79.30
61255;DHT22;47128;47.530;8.584;2023-06-24T09:01:44;25.90;77.40
61255;DHT22;47128;47.530;8.584;2023-06-24T09:04:10;25.80;78.00
61255;DHT22;47128;47.530;8.584;2023-06-24T09:06:35;25.80;78.50
61255;DHT22;47128;47.530;8.584;2023-06-24T09:09:01;25.80;78.00
61255;DHT22;47128;47.530;8.584;2023-06-24T09:11:27;25.80;77.10
61255;DHT22;47128;47.530;8.584;2023-06-24T09:13:59;26.00;77.60
61255;DHT22;47128;47.530;8.584;2023-06-24T09:16:25;26.10;75.90
61255;DHT22;47128;47.530;8.584;2023-06-24T09:18:51;25.90;76.10
61255;DHT22;47128;47.530;8.584;2023-06-24T09:21:23;25.70;75.90
61255;DHT22;47128;47.530;8.584;2023-06-24T09:26:55;25.70;76.00
61255;DHT22;47128;47.530;8.584;2023-06-24T09:29:22;25.50;75.50
61255;DHT22;47128;47.530;8.584;2023-06-24T09:31:50;25.20;75.60
61255;DHT22;47128;47.530;8.584;2023-06-24T09:34:21;25.10;76.30
61255;DHT22;47128;47.530;8.584;2023-06-24T09:36:53;25.50;77.20
61255;DHT22;47128;47.530;8.584;2023-06-24T09:39:20;25.90;77.30
61255;DHT22;47128;47.530;8.584;2023-06-24T09:41:50;26.10;77.40
61255;DHT22;47128;47.530;8.584;2023-06-24T09:44:15;25.90;75.60
61255;DHT22;47128;47.530;8.584;2023-06-24T09:46:42;25.90;76.40
61255;DHT22;47128;47.530;8.584;2023-06-24T09:49:08;25.90;76.10
61255;DHT22;47128;47.530;8.584;2023-06-24T09:51:43;26.20;75.40
61255;DHT22;47128;47.530;8.584;2023-06-24T09:54:10;25.80;73.60
61255;DHT22;47128;47.530;8.584;2023-06-24T09:56:36;25.90;73.60
61255;DHT22;47128;47.530;8.584;2023-06-24T09:59:06;25.70;73.00
61255;DHT22;47128;47.530;8.584;2023-06-24T10:01:32;25.60;72.90
61255;DHT22;47128;47.530;8.584;2023-06-24T10:06:51;25.90;73.60
61255;DHT22;47128;47.530;8.584;2023-06-24T10:09:17;25.80;72.50
61255;DHT22;47128;47.530;8.584;2023-06-24T10:11:44;25.80;72.00
61255;DHT22;47128;47.530;8.584;2023-06-24T10:14:20;25.70;71.80
61255;DHT22;47128;47.530;8.584;2023-06-24T10:16:46;25.80;71.90
61255;DHT22;47128;47.530;8.584;2023-06-24T10:19:14;25.80;72.30
61255;DHT22;47128;47.530;8.584;2023-06-24T10:21:44;25.80;71.70
61255;DHT22;47128;47.530;8.584;2023-06-24T10:24:10;25.80;73.00
61255;DHT22;47128;47.530;8.584;2023-06-24T10:26:36;25.80;71.50
61255;DHT22;47128;47.530;8.584;2023-06-24T10:44:49;26.40;68.40
61255;DHT22;47128;47.530;8.584;2023-06-24T10:47:15;26.00;68.80
61255;DHT22;47128;47.530;8.584;2023-06-24T10:49:40;25.80;69.50
61255;DHT22;47128;47.530;8.584;2023-06-24T10:52:12;26.00;69.80
61255;DHT22;47128;47.530;8.584;2023-06-24T10:54:38;26.40;69.40
61255;DHT22;47128;47.530;8.584;2023-06-24T10:57:04;26.70;69.60
61255;DHT22;47128;47.530;8.584;2023-06-24T10:59:43;26.80;68.60
61255;DHT22;47128;47.530;8.584;2023-06-24T11:02:15;26.90;68.50
61255;DHT22;47128;47.530;8.584;2023-06-24T11:07:09;26.80;68.50
61255;DHT22;47128;47.530;8.584;2023-06-24T11:09:34;26.60;69.20
61255;DHT22;47128;47.530;8.584;2023-06-24T11:12:02;26.50;69.90
61255;DHT22;47128;47.530;8.584;2023-06-24T11:14:27;26.50;68.80
61255;DHT22;47128;47.530;8.584;2023-06-24T11:16:53;26.50;69.00
61255;DHT22;47128;47.530;8.584;2023-06-24T11:19:18;26.40;70.00
61255;DHT22;47128;47.530;8.584;2023-06-24T11:21:44;26.50;70.70
61255;DHT22;47128;47.530;8.584;2023-06-24T11:24:09;26.50;70.40
61255;DHT22;47128;47.530;8.584;2023-06-24T11:26:36;26.80;71.30
61255;DHT22;47128;47.530;8.584;2023-06-24T11:32:00;27.30;69.80
61255;DHT22;47128;47.530;8.584;2023-06-24T11:34:32;27.20;69.40
61255;DHT22;47128;47.530;8.584;2023-06-24T11:36:57;27.30;70.10
61255;DHT22;47128;47.530;8.584;2023-06-24T11:39:27;27.10;69.10
61255;DHT22;47128;47.530;8.584;2023-06-24T11:41:53;27.30;69.80
61255;DHT22;47128;47.530;8.584;2023-06-24T11:44:19;27.40;69.30
61255;DHT22;47128;47.530;8.584;2023-06-24T11:46:45;27.70;69.30
61255;DHT22;47128;47.530;8.584;2023-06-24T11:49:11;28.00;67.50
61255;DHT22;47128;47.530;8.584;2023-06-24T11:51:37;28.10;67.70
61255;DHT22;47128;47.530;8.584;2023-06-24T11:54:14;27.90;68.60
61255;DHT22;47128;47.530;8.584;2023-06-24T11:56:40;27.90;66.80
61255;DHT22;47128;47.530;8.584;2023-06-24T11:59:06;28.10;67.00
61255;DHT22;47128;47.530;8.584;2023-06-24T12:01:32;27.90;66.00
61255;DHT22;47128;47.530;8.584;2023-06-24T12:04:01;27.80;66.70
61255;DHT22;47128;47.530;8.584;2023-06-24T12:06:27;28.00;67.10
61255;DHT22;47128;47.530;8.584;2023-06-24T12:08:52;27.80;67.30
61255;DHT22;47128;47.530;8.584;2023-06-24T12:11:18;27.40;66.40
61255;DHT22;47128;47.530;8.584;2023-06-24T12:13:44;27.10;67.30
61255;DHT22;47128;47.530;8.584;2023-06-24T12:16:09;27.50;68.00
61255;DHT22;47128;47.530;8.584;2023-06-24T12:18:35;27.80;66.20
61255;DHT22;47128;47.530;8.584;2023-06-24T12:21:00;28.00;66.50
61255;DHT22;47128;47.530;8.584;2023-06-24T12:23:26;28.00;66.50
61255;DHT22;47128;47.530;8.584;2023-06-24T12:25:51;27.70;65.60
61255;DHT22;47128;47.530;8.584;2023-06-24T12:28:17;27.70;65.40
61255;DHT22;47128;47.530;8.584;2023-06-24T12:30:42;28.10;67.20
61255;DHT22;47128;47.530;8.584;2023-06-24T12:33:07;28.30;66.20
61255;DHT22;47128;47.530;8.584;2023-06-24T12:35:34;27.90;65.80
61255;DHT22;47128;47.530;8.584;2023-06-24T12:37:59;28.10;66.10
61255;DHT22;47128;47.530;8.584;2023-06-24T12:40:25;27.80;64.70
61255;DHT22;47128;47.530;8.584;2023-06-24T12:42:50;27.60;65.90
61255;DHT22;47128;47.530;8.584;2023-06-24T12:45:16;27.80;65.10
61255;DHT22;47128;47.530;8.584;2023-06-24T12:47:41;28.10;65.80
61255;DHT22;47128;47.530;8.584;2023-06-24T12:50:07;28.50;66.10
61255;DHT22;47128;47.530;8.584;2023-06-24T12:52:33;28.30;66.10
61255;DHT22;47128;47.530;8.584;2023-06-24T12:54:59;28.60;66.30
61255;DHT22;47128;47.530;8.584;2023-06-24T12:57:24;28.60;64.90
61255;DHT22;47128;47.530;8.584;2023-06-24T12:59:50;28.60;65.70
61255;DHT22;47128;47.530;8.584;2023-06-24T13:02:15;28.00;64.60
61255;DHT22;47128;47.530;8.584;2023-06-24T13:04:41;27.90;64.20
61255;DHT22;47128;47.530;8.584;2023-06-24T13:07:06;27.80;63.40
61255;DHT22;47128;47.530;8.584;2023-06-24T13:09:32;27.60;63.40
61255;DHT22;47128;47.530;8.584;2023-06-24T13:11:58;27.70;63.90
61255;DHT22;47128;47.530;8.584;2023-06-24T13:14:23;28.20;64.40
61255;DHT22;47128;47.530;8.584;2023-06-24T13:16:52;28.50;63.70
61255;DHT22;47128;47.530;8.584;2023-06-24T13:19:17;28.30;63.70
61255;DHT22;47128;47.530;8.584;2023-06-24T13:21:43;28.10;63.30
61255;DHT22;47128;47.530;8.584;2023-06-24T13:24:08;28.40;63.50
61255;DHT22;47128;47.530;8.584;2023-06-24T13:26:34;28.60;63.00
61255;DHT22;47128;47.530;8.584;2023-06-24T13:28:59;28.90;62.40
61255;DHT22;47128;47.530;8.584;2023-06-24T13:31:25;28.70;62.10
61255;DHT22;47128;47.530;8.584;2023-06-24T13:33:50;28.50;62.50
61255;DHT22;47128;47.530;8.584;2023-06-24T13:36:30;28.50;62.50
61255;DHT22;47128;47.530;8.584;2023-06-24T13:38:56;28.60;63.10
61255;DHT22;47128;47.530;8.584;2023-06-24T13:41:22;28.30;62.30
61255;DHT22;47128;47.530;8.584;2023-06-24T13:46:30;28.00;63.20
61255;DHT22;47128;47.530;8.584;2023-06-24T13:48:56;28.10;61.80
61255;DHT22;47128;47.530;8.584;2023-06-24T13:51:22;27.80;59.90
61255;DHT22;47128;47.530;8.584;2023-06-24T13:53:48;27.70;60.40
61255;DHT22;47128;47.530;8.584;2023-06-24T13:56:14;27.80;61.70
61255;DHT22;47128;47.530;8.584;2023-06-24T13:58:39;27.80;61.30
61255;DHT22;47128;47.530;8.584;2023-06-24T14:01:05;27.60;61.30
61255;DHT22;47128;47.530;8.584;2023-06-24T14:03:30;27.90;61.70
61255;DHT22;47128;47.530;8.584;2023-06-24T14:05:56;28.30;62.20
61255;DHT22;47128;47.530;8.584;2023-06-24T14:08:22;28.50;61.50
61255;DHT22;47128;47.530;8.584;2023-06-24T14:10:48;28.00;61.70
61255;DHT22;47128;47.530;8.584;2023-06-24T14:13:14;28.00;61.60
61255;DHT22;47128;47.530;8.584;2023-06-24T14:15:40;28.40;61.80
61255;DHT22;47128;47.530;8.584;2023-06-24T14:18:05;28.70;60.50
61255;DHT22;47128;47.530;8.584;2023-06-24T14:20:31;28.40;60.90
61255;DHT22;47128;47.530;8.584;2023-06-24T14:22:56;28.60;61.00
61255;DHT22;47128;47.530;8.584;2023-06-24T14:25:22;28.80;62.20
61255;DHT22;47128;47.530;8.584;2023-06-24T14:27:47;28.70;61.70
61255;DHT22;47128;47.530;8.584;2023-06-24T14:30:13;28.60;60.10
61255;DHT22;47128;47.530;8.584;2023-06-24T14:32:38;28.30;61.10
61255;DHT22;47128;47.530;8.584;2023-06-24T14:35:04;28.50;61.50
61255;DHT22;47128;47.530;8.584;2023-06-24T14:37:29;28.60;60.80
61255;DHT22;47128;47.530;8.584;2023-06-24T14:39:55;28.80;60.20
61255;DHT22;47128;47.530;8.584;2023-06-24T14:42:20;28.80;59.40
61255;DHT22;47128;47.530;8.584;2023-06-24T14:44:46;28.80;59.60
61255;DHT22;47128;47.530;8.584;2023-06-24T14:47:12;28.60;59.20
61255;DHT22;47128;47.530;8.584;2023-06-24T14:49:38;28.40;60.20
61255;DHT22;47128;47.530;8.584;2023-06-24T14:52:03;28.30;60.80
61255;DHT22;47128;47.530;8.584;2023-06-24T14:54:29;28.40;60.40
61255;DHT22;47128;47.530;8.584;2023-06-24T14:56:54;28.70;59.90
61255;DHT22;47128;47.530;8.584;2023-06-24T14:59:20;28.40;59.70
61255;DHT22;47128;47.530;8.584;2023-06-24T15:01:45;27.90;60.30
61255;DHT22;47128;47.530;8.584;2023-06-24T15:04:11;27.80;61.80
61255;DHT22;47128;47.530;8.584;2023-06-24T15:06:36;27.80;61.80
61255;DHT22;47128;47.530;8.584;2023-06-24T15:09:02;27.90;61.00
61255;DHT22;47128;47.530;8.584;2023-06-24T15:11:28;27.90;60.80
61255;DHT22;47128;47.530;8.584;2023-06-24T15:13:53;27.90;61.00
61255;DHT22;47128;47.530;8.584;2023-06-24T15:16:19;28.00;60.40
61255;DHT22;47128;47.530;8.584;2023-06-24T15:18:45;28.10;61.30
61255;DHT22;47128;47.530;8.584;2023-06-24T15:21:11;28.20;60.50
61255;DHT22;47128;47.530;8.584;2023-06-24T15:23:37;28.40;59.30
61255;DHT22;47128;47.530;8.584;2023-06-24T15:26:02;28.30;60.00
61255;DHT22;47128;47.530;8.584;2023-06-24T15:28:28;28.20;60.50
61255;DHT22;47128;47.530;8.584;2023-06-24T15:30:55;28.20;60.50
61255;DHT22;47128;47.530;8.584;2023-06-24T15:33:20;28.20;61.10
61255;DHT22;47128;47.530;8.584;2023-06-24T15:35:46;28.10;61.00
61255;DHT22;47128;47.530;8.584;2023-06-24T15:38:11;28.00;61.00
61255;DHT22;47128;47.530;8.584;2023-06-24T15:40:39;28.00;61.10
61255;DHT22;47128;47.530;8.584;2023-06-24T15:43:04;27.90;60.90
61255;DHT22;47128;47.530;8.584;2023-06-24T15:45:29;27.70;60.40
61255;DHT22;47128;47.530;8.584;2023-06-24T15:47:55;27.80;60.60
61255;DHT22;47128;47.530;8.584;2023-06-24T15:50:20;28.10;59.60
61255;DHT22;47128;47.530;8.584;2023-06-24T15:52:46;28.00;60.30
61255;DHT22;47128;47.530;8.584;2023-06-24T15:55:11;28.10;60.40
61255;DHT22;47128;47.530;8.584;2023-06-24T15:57:37;28.30;60.60
61255;DHT22;47128;47.530;8.584;2023-06-24T16:00:03;28.20;59.90
61255;DHT22;47128;47.530;8.584;2023-06-24T16:02:29;28.10;60.60
61255;DHT22;47128;47.530;8.584;2023-06-24T16:04:54;28.30;60.00
61255;DHT22;47128;47.530;8.584;2023-06-24T16:07:19;28.20;59.90
61255;DHT22;47128;47.530;8.584;2023-06-24T16:09:45;28.10;60.10